メインページ
METAR-TAF:

METAR-TAF

空港 :

パリチャールズ・ドゴール, フランス

パリ=シャルル・ド・ゴール空港

緯度: 49-01N, 経度: 002-32E, 海抜: 118m

現時点の気象観測

当レポートは24分前の20:30(UTC)に作成
北西の風 12kt
気温 3°C
湿度 81%
気圧 990 hPa
視程10km以上
高度2200ftの雲は散在している
高度3200ftの雲は散在している
高度12000ftの千切れ雲あり

METAR: LFPG 112030Z 32012KT 9999 SCT022 SCT032 BKN120 03/00 Q0990 NOSIG

時間: 21:54 (20:54 UTC)

予報

当レポートは3時間54分前の17:00(UTC)に作成
予報は11日の 18時(UTC)から 12日の 24時(UTC)まで有効
北西の風 20kt、最大30ktの突風を伴う
視程: 7000m
高度1800ftの千切れ雲あり
11日の 18時(UTC)から 12日の 03時(UTC)まで一時的に
高度1300ftの千切れ雲あり
確率 40% :
11日の 18時(UTC)から 11日の 24時(UTC)まで一時的に
視程: 2000m
高度700ftの千切れ雲あり
弱いにわか雪, 雨
12日の 03時(UTC)から 12日の 05時(UTC)まで徐々に
西の風 13kt
12日の 16時(UTC)から 12日の 18時(UTC)まで一時的に
の風 5kt
12日の 23時(UTC)から 12日の 24時(UTC)まで徐々に
高度600ftの千切れ雲あり

TAF: LFPG 111700Z 1118/1224 32020G30KT 7000 BKN018 TEMPO 1118/1203 BKN013 PROB40 TEMPO 1118/1124 2000 -SHSNRA BKN007 BECMG 1203/1205 26013KT TEMPO 1216/1218 18005KT BECMG 1223/1224 BKN006 TX04/1212Z TN01/1206Z

4,000以上の空港の気象観測と天気予報(METAR報とTAF報)

利用可能な観測所は地図上に黄色い丸と赤い丸で示す。

丸の上にカーソルを重ねると観測所名を参照できる。

次にクリックすると気象観測と天気予報を参照できる。

マップの切り替え:黒色「×」印の緑ボタンをクリックして拡大、「-」印の緑ボタンをクリックして縮小、緑色の三角印をクリックして隣りの地図に切り替え


METAR-TAF: